Time;durP1;ratioP1;P1;durP2;ratioP2;P2;SDS_P1;SDS_P2;PMS_P1;PMS_P2;Temp;Humidity;BMP_temperature;BMP_pressure;BME280_temperature;BME280_humidity;BME280_pressure;Samples;Min_cycle;Max_cycle;Signal;HPM_P1;HPM_P2
2022/04/02 00:01:53;;;;;;;15.67;5.57;;;;;;;13.37;100.00;97753.75;5130779;28;20617;-53
2022/04/02 00:04:22;;;;;;;16.33;6.13;;;;;;;13.42;100.00;97764.72;5130417;28;20215;-53
2022/04/02 00:06:49;;;;;;;12.50;5.27;;;;;;;13.39;100.00;97753.66;5130657;28;20277;-53
2022/04/02 00:09:15;;;;;;;12.57;5.47;;;;;;;13.31;100.00;97762.00;5130305;28;20202;-53
2022/04/02 00:11:43;;;;;;;19.23;5.43;;;;;;;13.27;100.00;97759.69;5131401;27;20564;-53
2022/04/02 00:14:10;;;;;;;13.53;5.60;;;;;;;13.35;100.00;97766.03;5134705;27;20289;-54
2022/04/02 00:16:37;;;;;;;20.00;6.67;;;;;;;13.35;100.00;97760.00;5134626;27;20284;-53
2022/04/02 00:19:04;;;;;;;15.30;5.30;;;;;;;13.34;100.00;97755.72;5134866;27;20194;-52
2022/04/02 00:21:32;;;;;;;15.13;5.60;;;;;;;13.30;100.00;97746.47;5134459;27;20189;-52
2022/04/02 00:23:59;;;;;;;16.30;5.60;;;;;;;13.26;100.00;97740.63;5134546;27;20229;-53
2022/04/02 00:26:27;;;;;;;15.70;5.93;;;;;;;13.28;100.00;97743.97;5134227;27;20247;-53
2022/04/02 00:28:54;;;;;;;14.60;5.57;;;;;;;13.30;100.00;97759.50;5134555;27;20226;-53
2022/04/02 00:31:22;;;;;;;18.27;5.60;;;;;;;13.36;100.00;97751.25;5134247;27;20200;-53
2022/04/02 00:33:50;;;;;;;11.00;4.83;;;;;;;13.34;100.00;97753.13;5134399;27;20220;-54
2022/04/02 00:36:21;;;;;;;12.37;5.60;;;;;;;13.27;100.00;97741.44;5134004;27;20196;-53
2022/04/02 00:38:49;;;;;;;13.73;5.30;;;;;;;13.31;100.00;97755.94;5134256;27;20193;-54
2022/04/02 00:41:16;;;;;;;12.23;6.07;;;;;;;13.28;100.00;97743.13;5134327;27;20601;-52
2022/04/02 00:43:57;;;;;;;16.40;6.63;;;;;;;13.28;100.00;97743.13;5134043;27;20190;-53
2022/04/02 00:46:24;;;;;;;21.13;9.53;;;;;;;13.19;100.00;97741.16;5134233;27;20202;-53
2022/04/02 00:48:52;;;;;;;17.97;8.70;;;;;;;13.22;100.00;97748.72;5134050;27;20201;-53
2022/04/02 00:51:19;;;;;;;14.03;9.03;;;;;;;13.19;100.00;97748.97;5134092;27;20193;-53
2022/04/02 00:53:50;;;;;;;19.27;10.67;;;;;;;13.12;100.00;97737.22;5133997;27;20222;-53
2022/04/02 00:56:17;;;;;;;17.73;9.50;;;;;;;12.98;100.00;97731.16;5133942;27;20684;-53
2022/04/02 00:58:45;;;;;;;19.10;9.27;;;;;;;12.84;100.00;97735.66;5133943;27;20190;-53
2022/04/02 01:01:12;;;;;;;13.77;7.33;;;;;;;12.78;100.00;97734.28;5133754;27;20200;-54
2022/04/02 01:03:39;;;;;;;14.23;6.67;;;;;;;12.85;100.00;97730.34;5134056;27;20569;-53
2022/04/02 01:06:09;;;;;;;15.97;6.60;;;;;;;12.85;100.00;97704.31;5133936;27;20194;-52
2022/04/02 01:08:37;;;;;;;18.47;5.70;;;;;;;13.11;100.00;97731.19;5133734;27;20197;-52
2022/04/02 01:11:05;;;;;;;12.20;5.80;;;;;;;13.16;100.00;97728.31;5133898;27;20197;-51
2022/04/02 01:13:34;;;;;;;18.63;5.40;;;;;;;13.04;100.00;97730.78;5133452;27;20226;-53
2022/04/02 01:16:01;;;;;;;10.77;4.90;;;;;;;12.97;100.00;97739.94;5133596;27;20254;-53
2022/04/02 01:18:28;;;;;;;14.20;5.77;;;;;;;12.96;100.00;97733.06;5133644;27;20221;-55
2022/04/02 01:20:55;;;;;;;12.40;5.67;;;;;;;13.14;100.00;97735.38;5133513;27;20196;-53
2022/04/02 01:23:29;;;;;;;16.13;5.53;;;;;;;13.10;100.00;97735.56;5132870;27;20280;-53
2022/04/02 01:25:57;;;;;;;14.77;6.47;;;;;;;13.09;100.00;97744.31;5133266;27;20650;-52
2022/04/02 01:28:24;;;;;;;15.50;5.63;;;;;;;13.07;100.00;97751.41;5133292;27;20200;-53
2022/04/02 01:30:51;;;;;;;16.73;5.83;;;;;;;12.93;100.00;97743.69;5133340;27;20201;-53
2022/04/02 01:33:18;;;;;;;13.50;5.30;;;;;;;12.91;100.00;97742.94;5133219;27;20768;-53
2022/04/02 01:35:45;;;;;;;12.50;5.80;;;;;;;12.89;100.00;97741.38;5133312;27;20701;-52
2022/04/02 01:38:12;;;;;;;11.33;5.93;;;;;;;12.80;100.00;97750.63;5133567;27;20194;-53
2022/04/02 01:40:40;;;;;;;14.77;6.07;;;;;;;12.76;100.00;97743.94;5133265;27;20193;-52
2022/04/02 01:43:07;;;;;;;11.50;6.03;;;;;;;12.76;100.00;97746.56;5133272;27;20202;-51
2022/04/02 01:45:34;;;;;;;15.37;7.00;;;;;;;12.74;100.00;97758.84;5133195;27;21007;-51
2022/04/02 01:48:01;;;;;;;11.23;5.73;;;;;;;12.68;100.00;97734.03;5133092;27;20293;-51
2022/04/02 01:50:28;;;;;;;14.33;5.83;;;;;;;12.79;100.00;97751.56;5133053;27;20297;-52
2022/04/02 01:52:55;;;;;;;17.23;6.10;;;;;;;12.87;100.00;97745.84;5132836;27;20228;-53
2022/04/02 01:55:22;;;;;;;11.73;6.27;;;;;;;12.88;100.00;97748.34;5132737;27;20194;-52
2022/04/02 01:57:50;;;;;;;14.83;6.50;;;;;;;12.90;100.00;97750.84;5133003;27;20624;-52
2022/04/02 02:00:18;;;;;;;18.13;8.33;;;;;;;12.82;100.00;97753.13;5132796;27;20202;-52
2022/04/02 02:02:45;;;;;;;22.27;7.30;;;;;;;12.71;100.00;97761.66;5133049;27;20749;-52
2022/04/02 02:05:12;;;;;;;12.03;6.93;;;;;;;12.64;100.00;97763.00;5133139;27;20205;-52
2022/04/02 02:07:38;;;;;;;8.87;6.03;;;;;;;12.58;100.00;97764.22;5132594;27;20235;-52
2022/04/02 02:10:06;;;;;;;14.73;6.77;;;;;;;12.54;100.00;97752.31;5132699;27;20204;-52
2022/04/02 02:12:33;;;;;;;10.30;5.90;;;;;;;12.50;100.00;97743.06;5132451;27;20191;-52
2022/04/02 02:15:01;;;;;;;11.67;6.37;;;;;;;12.40;100.00;97764.56;5132855;27;20194;-52
2022/04/02 02:17:28;;;;;;;11.77;7.23;;;;;;;12.34;100.00;97771.81;5132365;27;20285;-52
2022/04/02 02:19:55;;;;;;;15.90;6.27;;;;;;;12.28;100.00;97771.38;5132537;27;20194;-52
2022/04/02 02:22:22;;;;;;;11.20;6.67;;;;;;;12.26;100.00;97765.44;5132199;27;20202;-52
2022/04/02 02:24:49;;;;;;;17.13;7.10;;;;;;;12.30;100.00;97772.94;5132203;27;20216;-52
2022/04/02 02:27:16;;;;;;;12.07;7.07;;;;;;;12.26;100.00;97775.84;5132307;27;20237;-53
2022/04/02 02:29:43;;;;;;;15.63;7.33;;;;;;;12.26;100.00;97776.69;5132457;27;20194;-53
2022/04/02 02:32:11;;;;;;;10.87;6.67;;;;;;;12.24;100.00;97783.75;5132172;27;20204;-52
2022/04/02 02:37:23;;;;;;;12.30;6.23;;;;;;;12.20;100.00;97799.63;5132065;27;20273;-52
2022/04/02 02:39:51;;;;;;;13.53;6.13;;;;;;;12.09;100.00;97799.47;5122042;27;20229;-52
2022/04/02 02:42:18;;;;;;;8.80;4.53;;;;;;;12.05;100.00;97811.84;5120801;27;20201;-52
2022/04/02 02:44:45;;;;;;;8.47;4.50;;;;;;;11.84;100.00;97811.41;5113745;27;20197;-52
2022/04/02 02:47:13;;;;;;;5.57;4.03;;;;;;;11.73;100.00;97813.78;5111516;28;20291;-53
2022/04/02 02:49:40;;;;;;;8.40;4.50;;;;;;;11.67;100.00;97811.53;5110997;28;20752;-53
2022/04/02 02:52:08;;;;;;;7.10;4.00;;;;;;;11.60;100.00;97815.44;5111526;28;20198;-53
2022/04/02 02:54:34;;;;;;;7.73;3.73;;;;;;;11.43;100.00;97803.44;5111241;28;20716;-53
2022/04/02 02:57:01;;;;;;;4.67;3.93;;;;;;;11.27;100.00;97810.47;5111305;28;20205;-53
2022/04/02 02:59:28;;;;;;;8.57;4.77;;;;;;;11.16;100.00;97808.53;5110930;28;20209;-52
2022/04/02 03:01:55;;;;;;;6.13;3.67;;;;;;;11.17;100.00;97819.75;5111018;28;20201;-52
2022/04/02 03:04:24;;;;;;;7.23;4.90;;;;;;;11.22;100.00;97809.91;5110802;28;20191;-52
2022/04/02 03:06:51;;;;;;;8.50;4.73;;;;;;;11.32;100.00;97816.22;5110711;28;20194;-51
2022/04/02 03:09:18;;;;;;;8.93;4.67;;;;;;;11.35;100.00;97810.84;5111093;28;20225;-52
2022/04/02 03:11:44;;;;;;;15.60;4.90;;;;;;;11.35;100.00;97834.25;5110800;28;20194;-51
2022/04/02 03:14:11;;;;;;;9.53;4.97;;;;;;;11.28;100.00;97830.34;5110817;28;20315;-52
2022/04/02 03:16:39;;;;;;;5.77;4.63;;;;;;;11.33;100.00;97843.03;5110347;28;20199;-52
2022/04/02 03:19:07;;;;;;;10.20;5.57;;;;;;;11.25;100.00;97839.13;5110601;28;20203;-52
2022/04/02 03:21:35;;;;;;;8.87;5.50;;;;;;;11.15;100.00;97824.19;5110642;28;20205;-52
2022/04/02 03:24:02;;;;;;;10.23;6.20;;;;;;;11.13;100.00;97831.22;5110734;28;20662;-53
2022/04/02 03:26:29;;;;;;;12.50;6.10;;;;;;;11.15;100.00;97839.75;5110668;28;20230;-52
2022/04/02 03:28:56;;;;;;;11.73;6.07;;;;;;;11.17;100.00;97843.13;5110366;28;20201;-52
2022/04/02 03:31:23;;;;;;;15.03;6.10;;;;;;;11.20;100.00;97848.09;5110303;28;20281;-53
2022/04/02 03:33:50;;;;;;;12.40;5.93;;;;;;;11.17;100.00;97837.91;5096127;28;20227;-52
2022/04/02 03:36:18;;;;;;;9.13;6.30;;;;;;;11.10;100.00;97839.19;5113235;27;20240;-52
2022/04/02 03:38:46;;;;;;;11.30;6.73;;;;;;;11.20;100.00;97856.72;5119781;27;20225;-52
2022/04/02 03:41:13;;;;;;;13.87;6.93;;;;;;;11.19;100.00;97855.06;5118381;27;20610;-52
2022/04/02 03:43:40;;;;;;;18.83;7.73;;;;;;;11.22;100.00;97865.28;5118556;27;20594;-52
2022/04/02 03:48:52;;;;;;;21.17;6.87;;;;;;;11.17;100.00;97879.47;5115600;27;20274;-52
2022/04/02 03:51:19;;;;;;;11.97;6.33;;;;;;;11.22;100.00;97893.00;5114835;28;20236;-54
2022/04/02 03:53:48;;;;;;;13.60;7.07;;;;;;;11.18;100.00;97897.53;5110141;28;20240;-54
2022/04/02 03:56:14;;;;;;;13.53;7.33;;;;;;;11.09;100.00;97908.44;5111985;27;20236;-52
2022/04/02 03:58:41;;;;;;;12.03;7.33;;;;;;;11.05;100.00;97904.34;5119592;28;20218;-53
2022/04/02 04:01:08;;;;;;;12.37;8.33;;;;;;;11.09;100.00;97928.38;5118809;27;20217;-52
2022/04/02 04:03:35;;;;;;;14.53;8.37;;;;;;;11.11;100.00;97911.78;5113174;28;20230;-50
2022/04/02 04:06:02;;;;;;;16.40;9.57;;;;;;;11.01;100.00;97912.41;5119941;27;20214;-51
2022/04/02 04:08:29;;;;;;;16.77;8.13;;;;;;;11.04;100.00;97918.25;5128423;28;20218;-52
2022/04/02 04:10:57;;;;;;;17.03;8.53;;;;;;;11.07;100.00;97922.41;5128253;28;20744;-52
2022/04/02 04:13:24;;;;;;;14.10;8.13;;;;;;;11.14;100.00;97927.19;5108418;28;20302;-50
2022/04/02 04:15:51;;;;;;;12.70;8.20;;;;;;;11.25;100.00;97931.78;5121051;28;20305;-52
2022/04/02 04:18:18;;;;;;;20.57;9.23;;;;;;;11.24;100.00;97937.91;5109741;28;20194;-51
2022/04/02 04:20:45;;;;;;;14.70;8.90;;;;;;;11.38;100.00;97957.91;5109323;28;20195;-53
2022/04/02 04:23:12;;;;;;;17.57;8.50;;;;;;;11.42;100.00;97952.44;5109973;28;20191;-51
2022/04/02 04:25:39;;;;;;;14.53;8.63;;;;;;;11.50;100.00;97960.66;5109600;28;20230;-51
2022/04/02 04:28:08;;;;;;;18.77;8.83;;;;;;;11.54;100.00;97951.72;5109960;28;20195;-52
2022/04/02 04:30:35;;;;;;;15.60;9.10;;;;;;;11.62;100.00;97946.13;5109963;28;20198;-53
2022/04/02 04:33:02;;;;;;;16.43;8.83;;;;;;;11.75;100.00;97941.00;5109899;28;20562;-52
2022/04/02 04:35:29;;;;;;;16.77;8.87;;;;;;;11.86;100.00;97946.44;5109605;28;20285;-52
2022/04/02 04:37:56;;;;;;;17.40;8.67;;;;;;;11.91;100.00;97939.22;5109626;28;20194;-52
2022/04/02 04:40:23;;;;;;;16.23;9.37;;;;;;;12.03;100.00;97954.09;5109538;28;20198;-52
2022/04/02 04:42:50;;;;;;;17.77;8.73;;;;;;;12.12;100.00;97955.31;5109915;28;20194;-50
2022/04/02 04:45:18;;;;;;;14.90;8.70;;;;;;;12.26;100.00;97961.38;5109962;28;20585;-52
2022/04/02 04:47:46;;;;;;;20.47;9.53;;;;;;;12.45;100.00;97955.88;5110120;28;20209;-52
2022/04/02 04:50:13;;;;;;;18.53;9.27;;;;;;;12.67;100.00;97960.59;5109460;28;20685;-51
2022/04/02 04:52:40;;;;;;;17.47;9.10;;;;;;;12.85;100.00;97956.03;5108931;28;20712;-51
2022/04/02 04:55:08;;;;;;;20.77;10.37;;;;;;;12.95;100.00;97963.16;5109743;28;20241;-54
2022/04/02 04:57:35;;;;;;;16.57;10.27;;;;;;;13.01;100.00;97965.34;5109756;28;20195;-53
2022/04/02 05:00:02;;;;;;;14.97;9.60;;;;;;;13.13;100.00;97970.72;5113670;28;20194;-53
2022/04/02 05:02:31;;;;;;;19.70;10.57;;;;;;;13.24;100.00;97971.75;5113194;28;20293;-53
2022/04/02 05:04:58;;;;;;;20.30;10.53;;;;;;;13.44;100.00;97966.06;5113174;28;20187;-52
2022/04/02 05:07:25;;;;;;;18.00;10.00;;;;;;;13.75;100.00;97969.31;5113179;28;20198;-54
2022/04/02 05:09:52;;;;;;;20.97;9.50;;;;;;;14.61;100.00;97966.94;5113385;28;20201;-53
2022/04/02 05:12:20;;;;;;;13.10;8.47;;;;;;;16.26;100.00;97980.06;5113145;28;20205;-54
2022/04/02 05:14:49;;;;;;;22.90;8.53;;;;;;;18.19;100.00;97975.00;5113080;28;20713;-53
2022/04/02 05:17:17;;;;;;;20.10;8.57;;;;;;;20.48;95.71;97987.09;5113071;28;20195;-52
2022/04/02 05:19:48;;;;;;;14.83;8.10;;;;;;;22.54;84.54;97994.16;5112876;28;20281;-52
2022/04/02 05:22:15;;;;;;;12.18;7.07;;;;;;;24.31;74.23;98005.44;5113106;28;20281;-52
2022/04/02 05:24:42;;;;;;;15.55;7.47;;;;;;;25.55;69.01;98006.53;5112916;28;20230;-53
2022/04/02 05:27:10;;;;;;;15.95;7.18;;;;;;;26.54;61.77;98019.75;5112798;28;20237;-53
2022/04/02 05:29:36;;;;;;;15.48;6.53;;;;;;;27.66;54.17;98020.44;5120089;27;20195;-53
2022/04/02 05:32:04;;;;;;;14.27;6.53;;;;;;;28.31;50.90;98022.16;5132784;27;20204;-53
2022/04/02 05:34:31;;;;;;;13.52;7.80;;;;;;;28.69;47.87;98018.09;5133360;27;20217;-52
2022/04/02 05:37:00;;;;;;;11.18;8.60;;;;;;;28.20;49.02;98018.16;5127897;27;20570;-53
2022/04/02 05:39:27;;;;;;;17.48;8.88;;;;;;;27.75;50.60;98014.84;5124751;27;20190;-53
2022/04/02 05:41:54;;;;;;;16.75;8.50;;;;;;;28.14;50.23;98018.88;5132259;27;20198;-53
2022/04/02 05:44:21;;;;;;;12.88;7.47;;;;;;;28.74;48.86;98028.22;5124855;27;20197;-52
2022/04/02 05:46:48;;;;;;;10.63;7.20;;;;;;;28.62;48.01;98035.09;5125732;27;20218;-53
2022/04/02 05:49:15;;;;;;;10.52;6.82;;;;;;;27.55;49.34;98028.91;5132944;27;20198;-51
2022/04/02 05:51:42;;;;;;;11.50;7.57;;;;;;;27.18;51.20;98037.91;5129339;27;20684;-53
2022/04/02 05:54:10;;;;;;;9.13;6.30;;;;;;;27.36;50.34;98028.50;5131708;27;20242;-53
2022/04/02 05:56:38;;;;;;;8.65;6.72;;;;;;;27.78;48.54;98024.28;5123098;27;20206;-52
2022/04/02 05:59:06;;;;;;;7.70;6.40;;;;;;;27.21;50.20;98022.34;5122147;27;20688;-51
2022/04/02 06:01:33;;;;;;;11.98;7.18;;;;;;;27.26;49.39;98021.81;5120220;27;20579;-53
2022/04/02 06:04:00;;;;;;;10.90;6.80;;;;;;;27.06;50.15;98018.91;5116006;27;20210;-53
2022/04/02 06:06:27;;;;;;;12.52;6.93;;;;;;;27.14;50.76;98021.47;5111289;28;20618;-54
2022/04/02 06:08:54;;;;;;;8.45;6.88;;;;;;;28.06;48.54;98027.03;5115855;27;20513;-53
2022/04/02 06:11:22;;;;;;;20.38;7.55;;;;;;;28.74;46.82;98029.03;5118520;27;20205;-53
2022/04/02 06:13:49;;;;;;;17.48;7.30;;;;;;;29.32;45.84;98032.25;5110966;28;20504;-53
2022/04/02 06:16:16;;;;;;;15.32;8.25;;;;;;;30.05;43.76;98030.66;5112100;28;20198;-52
2022/04/02 06:18:43;;;;;;;13.80;8.98;;;;;;;30.22;43.36;98031.91;5112036;28;20194;-52
2022/04/02 06:21:11;;;;;;;15.30;8.93;;;;;;;30.45;41.22;98033.34;5111814;28;20205;-52
2022/04/02 06:23:38;;;;;;;11.30;7.93;;;;;;;29.88;43.38;98030.19;5127204;27;20229;-52
2022/04/02 06:26:06;;;;;;;11.65;8.18;;;;;;;30.20;41.91;98028.63;5132197;27;20269;-52
2022/04/02 06:28:34;;;;;;;13.63;8.13;;;;;;;30.46;41.13;98027.81;5132018;27;20699;-53
2022/04/02 06:31:01;;;;;;;18.05;10.82;;;;;;;29.87;41.84;98028.53;5122972;27;20278;-53
2022/04/02 06:33:28;;;;;;;22.50;10.70;;;;;;;30.16;40.81;98027.38;5120851;27;20281;-53
2022/04/02 06:35:56;;;;;;;18.52;10.43;;;;;;;30.40;39.44;98027.78;5121451;27;20283;-53
2022/04/02 06:38:23;;;;;;;17.08;9.57;;;;;;;30.70;39.95;98034.38;5113414;27;20194;-52
2022/04/02 06:40:50;;;;;;;14.10;10.18;;;;;;;31.23;38.24;98034.31;5113965;27;20285;-53
2022/04/02 06:43:17;;;;;;;15.82;8.20;;;;;;;32.07;36.52;98032.22;5125161;27;20197;-52
2022/04/02 06:45:45;;;;;;;10.98;6.97;;;;;;;32.53;36.24;98036.44;5121294;27;20197;-54
2022/04/02 06:48:13;;;;;;;9.00;5.65;;;;;;;32.45;36.43;98039.41;5113906;27;20202;-53
2022/04/02 06:50:40;;;;;;;7.28;4.82;;;;;;;32.37;36.00;98039.69;5124741;27;20198;-53
2022/04/02 06:53:08;;;;;;;7.03;4.90;;;;;;;32.61;36.29;98016.53;5120189;27;20194;-53
2022/04/02 06:55:35;;;;;;;7.05;4.80;;;;;;;32.66;36.81;98024.75;5123755;27;20654;-53
2022/04/02 06:58:03;;;;;;;14.13;5.10;;;;;;;33.09;35.39;98030.94;5114808;27;20219;-52
2022/04/02 07:00:30;;;;;;;11.07;5.13;;;;;;;33.43;34.41;98020.63;5112758;27;20237;-53
2022/04/02 07:02:58;;;;;;;12.77;5.75;;;;;;;33.83;34.60;98037.94;5111023;28;20716;-52
2022/04/02 07:05:25;;;;;;;12.60;5.45;;;;;;;33.90;33.72;98043.22;5110504;28;20226;-51
2022/04/02 07:07:52;;;;;;;11.23;5.60;;;;;;;33.93;33.75;98032.00;5110680;28;20222;-53
2022/04/02 07:10:21;;;;;;;9.90;6.22;;;;;;;34.02;33.71;98032.47;5110095;28;20222;-52
2022/04/02 07:12:47;;;;;;;10.27;6.30;;;;;;;34.03;33.19;98023.34;5110275;28;20338;-53
2022/04/02 07:15:14;;;;;;;10.13;7.15;;;;;;;33.63;33.80;98023.91;5110431;28;20236;-52
2022/04/02 07:17:42;;;;;;;9.27;5.85;;;;;;;33.25;33.94;98034.09;5110519;28;20786;-52
2022/04/02 07:20:12;;;;;;;8.70;5.05;;;;;;;33.47;32.27;98041.47;5110150;28;20218;-52
2022/04/02 07:22:41;;;;;;;7.05;4.60;;;;;;;33.15;31.95;98038.13;5109379;28;20277;-52
2022/04/02 07:25:10;;;;;;;9.90;4.70;;;;;;;33.40;32.07;98031.88;5109576;28;20684;-52
2022/04/02 07:27:38;;;;;;;6.38;4.25;;;;;;;33.54;31.75;98046.78;5110655;28;20194;-53
2022/04/02 07:30:06;;;;;;;7.82;4.18;;;;;;;33.77;30.97;98052.28;5110734;28;20531;-52
2022/04/02 07:32:33;;;;;;;8.25;3.85;;;;;;;34.25;29.53;98056.78;5110446;28;20190;-51
2022/04/02 07:35:00;;;;;;;12.20;4.20;;;;;;;34.59;29.25;98056.03;5127207;27;20702;-51
2022/04/02 07:37:36;;;;;;;4.32;3.13;;;;;;;33.87;28.75;98049.88;5130826;27;20206;-52
2022/04/02 07:40:08;;;;;;;7.60;3.63;;;;;;;33.82;28.78;98060.50;5126553;27;20783;-52
2022/04/02 07:42:43;;;;;;;6.32;3.00;;;;;;;33.34;29.36;98054.28;5110068;27;20684;-53
2022/04/02 07:45:13;;;;;;;4.32;2.85;;;;;;;33.94;29.05;98039.03;5118321;27;20194;-52
2022/04/02 07:47:44;;;;;;;3.55;2.80;;;;;;;35.05;27.19;98067.06;5118102;28;20190;-53
2022/04/02 07:50:13;;;;;;;7.43;3.00;;;;;;;35.60;25.75;98062.06;5114008;28;20204;-53
2022/04/02 07:52:44;;;;;;;5.40;2.63;;;;;;;36.45;25.78;98074.75;5123670;27;20190;-53
2022/04/02 07:55:13;;;;;;;7.28;2.90;;;;;;;36.20;26.11;98064.28;5111098;28;20698;-53
2022/04/02 07:57:42;;;;;;;3.85;2.70;;;;;;;37.02;23.39;98073.47;5110068;28;20190;-53
2022/04/02 08:00:11;;;;;;;8.70;2.45;;;;;;;37.59;22.90;98073.16;5113233;28;20708;-53
2022/04/02 08:02:39;;;;;;;3.00;2.10;;;;;;;37.79;22.48;98062.59;5120012;28;20205;-52
2022/04/02 08:05:10;;;;;;;5.57;2.70;;;;;;;37.88;22.93;98059.44;5126394;28;20193;-53
2022/04/02 08:07:38;;;;;;;6.90;2.72;;;;;;;38.06;23.24;98057.19;5116604;28;20194;-52
2022/04/02 08:10:10;;;;;;;6.60;2.67;;;;;;;38.44;22.32;98053.47;5115549;28;20189;-52
2022/04/02 08:12:38;;;;;;;7.60;2.50;;;;;;;39.35;21.21;98066.84;5104430;28;20220;-53
2022/04/02 08:15:07;;;;;;;5.72;2.85;;;;;;;40.21;20.38;98061.69;5089380;28;20581;-53
2022/04/02 08:17:34;;;;;;;7.18;2.40;;;;;;;40.21;20.59;98058.97;5089480;28;20241;-54
2022/04/02 08:20:02;;;;;;;5.60;2.40;;;;;;;38.45;21.54;98044.28;5089038;28;20249;-53
2022/04/02 08:22:29;;;;;;;5.35;2.53;;;;;;;36.19;23.29;98052.66;5107146;28;20236;-52
2022/04/02 08:24:58;;;;;;;3.90;2.28;;;;;;;33.52;25.51;98044.31;5109458;28;20226;-51
2022/04/02 08:27:33;;;;;;;5.85;2.70;;;;;;;30.87;29.82;98030.25;5109169;28;20355;-52
2022/04/02 08:30:07;;;;;;;6.15;2.95;;;;;;;28.62;34.02;98029.75;5110142;28;20249;-52
2022/04/02 08:32:54;;;;;;;7.43;2.85;;;;;;;29.04;33.87;98031.47;5109586;28;20221;-52
2022/04/02 08:35:25;;;;;;;4.47;2.00;;;;;;;29.04;30.81;98026.97;5113777;28;20697;-53
2022/04/02 08:38:05;;;;;;;6.22;1.90;;;;;;;28.43;29.79;98026.78;5113061;28;20263;-53
2022/04/02 08:41:04;;;;;;;1.63;1.52;;;;;;;28.70;29.52;98017.09;5113727;28;20197;-53
2022/04/02 08:44:02;;;;;;;4.18;1.80;;;;;;;28.38;30.05;98010.50;5113667;28;20508;-52
2022/04/02 08:46:35;;;;;;;1.70;1.60;;;;;;;27.66;31.38;98015.94;5113566;28;20214;-52
2022/04/02 08:49:22;;;;;;;3.05;1.98;;;;;;;26.88;32.08;97983.78;5115477;27;20197;-53
2022/04/02 08:52:13;;;;;;;4.45;2.25;;;;;;;26.48;32.64;98004.53;5123946;27;20182;-52
2022/04/02 08:54:47;;;;;;;5.13;1.70;;;;;;;26.35;33.45;98010.47;5130271;27;20201;-53
2022/04/02 08:57:31;;;;;;;1.90;1.50;;;;;;;26.44;31.32;98011.22;5134213;27;20216;-53
2022/04/02 09:00:06;;;;;;;2.42;1.50;;;;;;;26.28;31.54;97995.41;5134118;27;20190;-53
2022/04/02 09:02:55;;;;;;;3.13;1.45;;;;;;;26.04;30.96;98002.56;5118776;27;20265;-53
2022/04/02 09:05:24;;;;;;;2.53;1.60;;;;;;;26.56;31.67;98007.09;5126323;27;20217;-53
2022/04/02 09:08:35;;;;;;;2.50;1.10;;;;;;;26.24;31.51;98008.22;5123055;27;20194;-53
2022/04/02 09:11:24;;;;;;;1.50;1.35;;;;;;;25.90;32.00;98006.00;5118026;27;20230;-53
2022/04/02 09:14:14;;;;;;;4.85;1.67;;;;;;;25.66;32.54;98003.50;5113156;28;20203;-53
2022/04/02 09:17:03;;;;;;;1.48;1.38;;;;;;;25.58;32.22;97999.03;5113141;28;20709;-52
2022/04/02 09:19:41;;;;;;;1.90;1.30;;;;;;;25.66;32.38;97991.03;5123919;27;20198;-54
2022/04/02 09:22:13;;;;;;;3.20;1.25;;;;;;;25.59;32.20;98002.53;5123528;27;20191;-53
2022/04/02 09:25:09;;;;;;;4.68;1.80;;;;;;;25.93;32.11;97999.50;5121952;27;20277;-53
2022/04/02 09:28:07;;;;;;;1.50;1.40;;;;;;;26.06;30.96;97994.41;5117815;27;20186;-53
2022/04/02 09:30:57;;;;;;;2.22;1.40;;;;;;;26.79;29.86;97992.88;5123068;27;20196;-53
2022/04/02 09:33:42;;;;;;;1.30;1.20;;;;;;;27.01;29.99;97989.31;5118748;27;20181;-53
2022/04/02 09:36:31;;;;;;;1.80;1.10;;;;;;;27.31;29.24;97982.13;5114747;27;20676;-54
2022/04/02 09:39:06;;;;;;;1.13;1.00;;;;;;;26.91;29.45;97978.94;5092284;28;20195;-53
2022/04/02 09:41:55;;;;;;;1.75;1.30;;;;;;;26.77;30.12;97995.72;5092254;28;20658;-53
2022/04/02 09:44:41;;;;;;;2.42;1.63;;;;;;;28.39;28.83;97984.63;5091620;28;20238;-54
2022/04/02 09:47:20;;;;;;;1.98;1.65;;;;;;;29.87;26.50;97990.28;5092306;28;20286;-53
2022/04/02 09:50:00;;;;;;;1.70;1.60;;;;;;;31.30;25.06;97986.81;5117110;27;20201;-54
2022/04/02 09:52:27;;;;;;;1.50;1.50;;;;;;;32.09;23.96;97997.09;5132446;27;20225;-53
2022/04/02 09:55:07;;;;;;;5.35;2.20;;;;;;;30.52;25.63;97994.81;5131921;27;20585;-53
2022/04/02 09:57:51;;;;;;;3.17;1.80;;;;;;;29.55;27.01;97997.22;5132923;27;20193;-53
2022/04/02 10:00:20;;;;;;;1.58;1.48;;;;;;;28.38;27.13;97989.16;5132974;27;20194;-53
2022/04/02 10:03:04;;;;;;;2.63;1.60;;;;;;;27.22;29.12;97981.38;5132715;27;20227;-53
2022/04/02 10:05:44;;;;;;;2.22;2.10;;;;;;;26.63;29.75;97983.25;5132543;27;20661;-54
2022/04/02 10:08:19;;;;;;;3.92;2.30;;;;;;;26.47;30.68;97976.25;5132660;27;20201;-53
2022/04/02 10:10:50;;;;;;;3.08;2.80;;;;;;;26.49;30.99;97974.25;5132569;27;20741;-54
2022/04/02 10:13:18;;;;;;;2.03;1.90;;;;;;;26.53;31.21;97980.84;5132557;27;20198;-53
2022/04/02 10:15:49;;;;;;;1.75;1.58;;;;;;;26.48;31.17;97972.59;5132424;27;20194;-53
2022/04/02 10:18:22;;;;;;;2.53;2.08;;;;;;;26.14;31.44;97966.91;5132241;27;20251;-53
2022/04/02 10:20:53;;;;;;;3.95;3.70;;;;;;;25.93;31.99;97963.13;5132568;27;20225;-53
2022/04/02 10:23:22;;;;;;;2.00;1.88;;;;;;;25.47;32.08;97967.56;5132702;27;20606;-52
2022/04/02 10:26:02;;;;;;;2.05;1.90;;;;;;;25.03;33.13;97964.66;5132115;27;20235;-53
2022/04/02 10:28:32;;;;;;;2.28;2.08;;;;;;;24.77;34.16;97954.28;5132619;27;20194;-53
2022/04/02 10:31:01;;;;;;;4.68;2.92;;;;;;;24.43;35.59;97962.50;5132463;27;20195;-52
2022/04/02 10:33:36;;;;;;;4.75;1.90;;;;;;;24.15;35.70;97954.06;5132117;27;20628;-53
2022/04/02 10:36:09;;;;;;;2.00;1.90;;;;;;;24.09;36.02;97946.78;5131954;27;20560;-52
2022/04/02 10:38:38;;;;;;;2.40;1.75;;;;;;;24.02;36.23;97942.31;5131723;27;20222;-53
2022/04/02 10:41:08;;;;;;;2.78;1.50;;;;;;;23.94;35.93;97944.97;5132151;27;20204;-53
2022/04/02 10:43:41;;;;;;;1.70;1.40;;;;;;;23.71;36.42;97939.50;5131734;27;20282;-52
2022/04/02 10:46:09;;;;;;;1.40;1.35;;;;;;;23.45;36.72;97940.47;5131719;27;20305;-53
2022/04/02 10:48:50;;;;;;;1.50;1.40;;;;;;;23.16;37.93;97942.69;5131731;27;20554;-53
2022/04/02 10:51:22;;;;;;;1.23;1.23;;;;;;;23.24;36.52;97936.63;5131763;27;20668;-53
2022/04/02 10:53:59;;;;;;;3.53;1.60;;;;;;;23.44;36.38;97933.50;5131938;27;20196;-53
2022/04/02 10:56:29;;;;;;;3.17;1.55;;;;;;;23.59;36.37;97931.03;5130914;27;20190;-54
2022/04/02 10:58:59;;;;;;;6.70;2.33;;;;;;;23.74;37.06;97923.28;5131727;27;20208;-53
2022/04/02 11:01:27;;;;;;;2.90;2.03;;;;;;;23.67;38.59;97923.13;5131509;27;20205;-53
2022/04/02 11:03:56;;;;;;;3.53;2.10;;;;;;;23.40;37.71;97920.75;5131706;27;20590;-53
2022/04/02 11:06:50;;;;;;;2.20;1.85;;;;;;;23.19;38.12;97921.22;5131847;27;20222;-53
2022/04/02 11:09:28;;;;;;;5.75;2.60;;;;;;;22.95;38.30;97906.09;5132122;27;20201;-53
2022/04/02 11:11:58;;;;;;;2.65;2.45;;;;;;;23.03;38.73;97929.09;5131393;27;20185;-53
2022/04/02 11:14:25;;;;;;;2.65;1.92;;;;;;;23.09;38.54;97924.00;5131384;27;20194;-53
2022/04/02 11:16:53;;;;;;;3.40;1.83;;;;;;;23.09;37.79;97902.00;5131443;27;20194;-53
2022/04/02 11:22:11;;;;;;;2.05;1.92;;;;;;;23.28;38.58;97911.47;5131413;27;20193;-54
2022/04/02 11:24:56;;;;;;;6.28;2.00;;;;;;;23.30;39.39;97920.06;5131799;27;20186;-53
2022/04/02 11:27:26;;;;;;;1.88;1.77;;;;;;;23.34;37.98;97921.41;5131380;27;20236;-53
2022/04/02 11:29:53;;;;;;;4.43;1.60;;;;;;;23.16;36.81;97903.84;5131496;27;20577;-53
2022/04/02 11:32:26;;;;;;;2.75;1.50;;;;;;;23.28;37.10;97922.06;5131263;27;20242;-52
2022/04/02 11:34:53;;;;;;;1.90;1.80;;;;;;;23.42;37.90;97916.94;5130998;27;20194;-53
2022/04/02 11:37:28;;;;;;;4.82;2.70;;;;;;;23.52;36.10;97914.16;5131168;27;20250;-53
2022/04/02 11:40:03;;;;;;;3.95;2.25;;;;;;;23.40;34.30;97915.44;5131112;27;20707;-53
2022/04/02 11:42:34;;;;;;;4.07;2.00;;;;;;;23.31;33.15;97925.22;5131528;27;20630;-52
2022/04/02 11:45:07;;;;;;;3.38;1.67;;;;;;;23.23;31.32;97917.25;5131059;27;20263;-52
2022/04/02 11:47:38;;;;;;;4.18;2.20;;;;;;;23.17;30.37;97918.72;5130714;27;20290;-53